Observation data for Anton on 05/23/2019      Previous  Date  Next       Current Mesonet Observations  Soil Data  Daily Summary Page  Observations in Plain Language
KAOS 230500Z 14017KT 23/14 A2981 RMK A01 T02320144  RH  060%=      5-min Rain = 0
KAOS 230505Z 14017KT 23/15 A2981 RMK A01 T02330147  RH  061%=      5-min Rain = 0
KAOS 230510Z 14017KT 23/15 A2981 RMK A01 T02330151  RH  063%=      5-min Rain = 0
KAOS 230515Z 14017KT 23/16 A2981 RMK A01 T02340155  RH  064%=      5-min Rain = 0
KAOS 230520Z 14017KT 23/16 A2981 RMK A01 T02340158  RH  066%=      5-min Rain = 0
KAOS 230525Z 14017G22KT 23/16 A2981 RMK A01 T02330161  RH  067%=      5-min Rain = 0
KAOS 230530Z 14018KT 23/16 A2981 RMK A01 T02330163  RH  068%=      5-min Rain = 0
KAOS 230535Z 14017G23KT 23/16 A2981 RMK A01 T02320164  RH  069%=      5-min Rain = 0
KAOS 230540Z 15018G23KT 23/17 A2981 RMK A01 T02320165  RH  069%=      5-min Rain = 0
KAOS 230545Z 14018G25KT 23/17 A2981 RMK A01 T02310166  RH  070%=      5-min Rain = 0
KAOS 230550Z 14019G26KT 23/17 A2981 RMK A01 T02310168  RH  071%=      5-min Rain = 0
KAOS 230555Z 14018KT 23/17 A2982 RMK A01 T02300168  RH  072%=      5-min Rain = 0
KAOS 230600Z 15018G24KT 23/17 A2982 RMK A01 T02300169  RH  072%=      5-min Rain = 0
KAOS 230605Z 15018KT 23/17 A2982 RMK A01 T02290169  RH  072%=      5-min Rain = 0
KAOS 230610Z 14019G26KT 23/17 A2982 RMK A01 T02290170  RH  073%=      5-min Rain = 0
KAOS 230615Z 14018G24KT 23/17 A2982 RMK A01 T02290171  RH  073%=      5-min Rain = 0
KAOS 230620Z 15018G23KT 23/17 A2982 RMK A01 T02270171  RH  074%=      5-min Rain = 0
KAOS 230625Z 15019G24KT 23/17 A2982 RMK A01 T02270172  RH  075%=      5-min Rain = 0
KAOS 230630Z 15019G24KT 23/17 A2982 RMK A01 T02270172  RH  075%=      5-min Rain = 0
KAOS 230635Z 15020G27KT 23/17 A2982 RMK A01 T02260173  RH  076%=      5-min Rain = 0
KAOS 230640Z 15019KT 23/17 A2982 RMK A01 T02260174  RH  076%=      5-min Rain = 0
KAOS 230645Z 15018KT 22/17 A2982 RMK A01 T02240174  RH  077%=      5-min Rain = 0
KAOS 230650Z 14020KT 22/18 A2982 RMK A01 T02240175  RH  077%=      5-min Rain = 0
KAOS 230655Z 15019G24KT 22/18 A2982 RMK A01 T02240175  RH  078%=      5-min Rain = 0
KAOS 230700Z 15019KT 22/18 A2982 RMK A01 T02240176  RH  078%=      5-min Rain = 0
KAOS 230705Z 15018G23KT 22/18 A2982 RMK A01 T02240177  RH  078%=      5-min Rain = 0
KAOS 230710Z 15018KT 23/18 A2982 RMK A01 T02250178  RH  078%=      5-min Rain = 0
KAOS 230715Z 14018G24KT 23/18 A2982 RMK A01 T02260178  RH  078%=      5-min Rain = 0
KAOS 230720Z 14018KT 23/18 A2982 RMK A01 T02260178  RH  078%=      5-min Rain = 0
KAOS 230725Z 14018G23KT 23/18 A2982 RMK A01 T02260178  RH  078%=      5-min Rain = 0
KAOS 230730Z 14017KT 22/18 A2982 RMK A01 T02240178  RH  079%=      5-min Rain = 0
KAOS 230735Z 14016KT 22/18 A2982 RMK A01 T02240178  RH  079%=      5-min Rain = 0
KAOS 230740Z 14017G23KT 22/18 A2983 RMK A01 T02240178  RH  080%=      5-min Rain = 0
KAOS 230745Z 14017G23KT 22/18 A2983 RMK A01 T02230179  RH  080%=      5-min Rain = 0
KAOS 230750Z 14017KT 22/18 A2983 RMK A01 T02230179  RH  080%=      5-min Rain = 0
KAOS 230755Z 15020KT 22/18 A2982 RMK A01 T02230180  RH  081%=      5-min Rain = 0
KAOS 230800Z 15018G24KT 22/18 A2982 RMK A01 T02230180  RH  081%=      5-min Rain = 0
KAOS 230805Z 14019G24KT 22/18 A2982 RMK A01 T02220181  RH  081%=      5-min Rain = 0
KAOS 230810Z 15019G25KT 22/18 A2982 RMK A01 T02220181  RH  082%=      5-min Rain = 0
KAOS 230815Z 15019G25KT 22/18 A2982 RMK A01 T02220181  RH  082%=      5-min Rain = 0
KAOS 230820Z 15018G23KT 22/18 A2982 RMK A01 T02220182  RH  082%=      5-min Rain = 0
KAOS 230825Z 15018G23KT 22/18 A2982 RMK A01 T02220182  RH  083%=      5-min Rain = 0
KAOS 230830Z 15018G23KT 22/18 A2982 RMK A01 T02210182  RH  083%=      5-min Rain = 0
KAOS 230835Z 15017G24KT 22/18 A2982 RMK A01 T02210182  RH  083%=      5-min Rain = 0
KAOS 230840Z 15017KT 22/18 A2982 RMK A01 T02200183  RH  084%=      5-min Rain = 0
KAOS 230845Z 14017KT 22/18 A2983 RMK A01 T02200183  RH  084%=      5-min Rain = 0
KAOS 230850Z 14016KT 22/18 A2983 RMK A01 T02200183  RH  084%=      5-min Rain = 0
KAOS 230855Z 15016KT 22/18 A2983 RMK A01 T02200183  RH  084%=      5-min Rain = 0
KAOS 230900Z 15015KT 22/18 A2983 RMK A01 T02200183  RH  084%=      5-min Rain = 0
KAOS 230905Z 15016G21KT 22/18 A2983 RMK A01 T02200184  RH  084%=      5-min Rain = 0
KAOS 230910Z 15016G21KT 22/18 A2983 RMK A01 T02200184  RH  084%=      5-min Rain = 0
KAOS 230915Z 15017KT 22/18 A2983 RMK A01 T02210184  RH  084%=      5-min Rain = 0
KAOS 230920Z 15016KT 22/18 A2983 RMK A01 T02210184  RH  084%=      5-min Rain = 0
KAOS 230925Z 15016G21KT 22/19 A2983 RMK A01 T02210185  RH  084%=      5-min Rain = 0
KAOS 230930Z 15016KT 22/19 A2983 RMK A01 T02210185  RH  084%=      5-min Rain = 0
KAOS 230935Z 15016KT 22/19 A2983 RMK A01 T02210185  RH  084%=      5-min Rain = 0
KAOS 230940Z 15015KT 22/19 A2984 RMK A01 T02210185  RH  085%=      5-min Rain = 0
KAOS 230945Z 15014KT 22/19 A2984 RMK A01 T02210185  RH  085%=      5-min Rain = 0
KAOS 230950Z 15014KT 22/19 A2984 RMK A01 T02210186  RH  085%=      5-min Rain = 0
KAOS 230955Z 15015KT 22/19 A2984 RMK A01 T02210186  RH  085%=      5-min Rain = 0
KAOS 231000Z 15015G20KT 22/19 A2984 RMK A01 T02210186  RH  085%=      5-min Rain = 0
KAOS 231005Z 15015KT 22/19 A2984 RMK A01 T02210186  RH  085%=      5-min Rain = 0
KAOS 231010Z 15016KT 22/19 A2984 RMK A01 T02210187  RH  085%=      5-min Rain = 0
KAOS 231015Z 15015G20KT 22/19 A2984 RMK A01 T02210187  RH  086%=      5-min Rain = 0
KAOS 231020Z 15014KT 22/19 A2984 RMK A01 T02210187  RH  086%=      5-min Rain = 0
KAOS 231025Z 15015KT 22/19 A2984 RMK A01 T02200187  RH  086%=      5-min Rain = 0
KAOS 231030Z 15014G19KT 22/19 A2984 RMK A01 T02200187  RH  086%=      5-min Rain = 0
KAOS 231035Z 15015KT 22/19 A2984 RMK A01 T02190187  RH  087%=      5-min Rain = 0
KAOS 231040Z 15014KT 22/19 A2984 RMK A01 T02180187  RH  087%=      5-min Rain = 0
KAOS 231045Z 14014KT 22/19 A2984 RMK A01 T02180187  RH  087%=      5-min Rain = 0
KAOS 231050Z 14013KT 22/19 A2984 RMK A01 T02180188  RH  087%=      5-min Rain = 0
KAOS 231055Z 14013KT 22/19 A2984 RMK A01 T02180188  RH  087%=      5-min Rain = 0
KAOS 231100Z 13013KT 22/19 A2984 RMK A01 T02180188  RH  087%=      5-min Rain = 0
KAOS 231105Z 13013KT 22/19 A2984 RMK A01 T02180188  RH  088%=      5-min Rain = 0
KAOS 231110Z 13014KT 22/19 A2984 RMK A01 T02180188  RH  088%=      5-min Rain = 0
KAOS 231115Z 13013KT 22/19 A2984 RMK A01 T02170188  RH  088%=      5-min Rain = 0
KAOS 231120Z 13012KT 22/19 A2984 RMK A01 T02170188  RH  088%=      5-min Rain = 0
KAOS 231125Z 13012KT 22/19 A2984 RMK A01 T02150187  RH  089%=      5-min Rain = 0
KAOS 231130Z 13011KT 21/19 A2984 RMK A01 T02130186  RH  089%=      5-min Rain = 0
KAOS 231135Z 13012KT 21/19 A2984 RMK A01 T02110185  RH  090%=      5-min Rain = 0
KAOS 231140Z 13013KT 21/19 A2984 RMK A01 T02100185  RH  091%=      5-min Rain = 0
KAOS 231145Z 12014KT 21/19 A2984 RMK A01 T02090185  RH  091%=      5-min Rain = 0
KAOS 231150Z 12014KT 21/19 A2984 RMK A01 T02090186  RH  091%=      5-min Rain = 0
KAOS 231155Z 13014KT 21/19 A2984 RMK A01 T02100186  RH  091%=      5-min Rain = 0
KAOS 231200Z 13013KT 21/19 A2984 RMK A01 T02100186  RH  091%=      5-min Rain = 0
KAOS 231205Z 13013KT 21/19 A2984 RMK A01 T02100186  RH  091%=      5-min Rain = 0
KAOS 231210Z 13013KT 21/19 A2984 RMK A01 T02110186  RH  090%=      5-min Rain = 0
KAOS 231215Z 13013KT 21/19 A2984 RMK A01 T02120186  RH  090%=      5-min Rain = 0
KAOS 231220Z 13013KT 21/19 A2985 RMK A01 T02130186  RH  089%=      5-min Rain = 0
KAOS 231225Z 14012KT 21/19 A2985 RMK A01 T02140186  RH  089%=      5-min Rain = 0
KAOS 231230Z 14013KT 22/19 A2985 RMK A01 T02150187  RH  089%=      5-min Rain = 0
KAOS 231235Z 14013KT 22/19 A2986 RMK A01 T02160187  RH  088%=      5-min Rain = 0
KAOS 231240Z 14014KT 22/19 A2986 RMK A01 T02170187  RH  088%=      5-min Rain = 0
KAOS 231245Z 14014KT 22/19 A2986 RMK A01 T02180187  RH  088%=      5-min Rain = 0
KAOS 231250Z 14014KT 22/19 A2986 RMK A01 T02180188  RH  087%=      5-min Rain = 0
KAOS 231255Z 14014KT 22/19 A2986 RMK A01 T02190188  RH  087%=      5-min Rain = 0
KAOS 231300Z 14015KT 22/19 A2986 RMK A01 T02190188  RH  087%=      5-min Rain = 0
KAOS 231305Z 15014G20KT 22/19 A2986 RMK A01 T02200188  RH  087%=      5-min Rain = 0
KAOS 231310Z 16015KT 22/19 A2986 RMK A01 T02200189  RH  087%=      5-min Rain = 0
KAOS 231315Z 15015G20KT 22/19 A2986 RMK A01 T02210190  RH  087%=      5-min Rain = 0
KAOS 231320Z 15017KT 22/19 A2987 RMK A01 T02220190  RH  086%=      5-min Rain = 0
KAOS 231325Z 14016G22KT 22/19 A2987 RMK A01 T02230190  RH  086%=      5-min Rain = 0
KAOS 231330Z 14017G22KT 22/19 A2987 RMK A01 T02240190  RH  086%=      5-min Rain = 0
KAOS 231335Z 14019KT 23/19 A2987 RMK A01 T02250191  RH  086%=      5-min Rain = 0
KAOS 231340Z 15018G23KT 23/19 A2987 RMK A01 T02260191  RH  085%=      5-min Rain = 0
KAOS 231345Z 15017KT 23/19 A2987 RMK A01 T02260191  RH  085%=      5-min Rain = 0
KAOS 231350Z 15017KT 23/19 A2987 RMK A01 T02280192  RH  084%=      5-min Rain = 0
KAOS 231355Z 15020G26KT 23/19 A2987 RMK A01 T02310192  RH  083%=      5-min Rain = 0
KAOS 231400Z 15017KT 23/19 A2987 RMK A01 T02310192  RH  083%=      5-min Rain = 0
KAOS 231405Z 15020KT 23/19 A2987 RMK A01 T02320192  RH  082%=      5-min Rain = 0
KAOS 231410Z 16018G23KT 23/19 A2987 RMK A01 T02340192  RH  082%=      5-min Rain = 0
KAOS 231415Z 16021KT 24/19 A2987 RMK A01 T02370192  RH  080%=      5-min Rain = 0
KAOS 231420Z 16019G25KT 24/19 A2987 RMK A01 T02400192  RH  079%=      5-min Rain = 0
KAOS 231425Z 16022KT 24/19 A2987 RMK A01 T02390190  RH  078%=      5-min Rain = 0
KAOS 231430Z 16023KT 24/19 A2987 RMK A01 T02410191  RH  078%=      5-min Rain = 0
KAOS 231435Z 16024KT 24/19 A2987 RMK A01 T02440190  RH  076%=      5-min Rain = 0
KAOS 231440Z 16023G29KT 24/19 A2987 RMK A01 T02440190  RH  076%=      5-min Rain = 0
KAOS 231445Z 15023G28KT 25/19 A2987 RMK A01 T02450189  RH  075%=      5-min Rain = 0
KAOS 231450Z 15021G27KT 25/19 A2987 RMK A01 T02470191  RH  075%=      5-min Rain = 0
KAOS 231455Z 16020KT 25/19 A2987 RMK A01 T02540192  RH  072%=      5-min Rain = 0
KAOS 231500Z 15021G27KT 26/19 A2987 RMK A01 T02560191  RH  071%=      5-min Rain = 0
KAOS 231505Z 16023G28KT 26/19 A2987 RMK A01 T02560189  RH  071%=      5-min Rain = 0
KAOS 231510Z 16023G31KT 26/19 A2987 RMK A01 T02570190  RH  070%=      5-min Rain = 0
KAOS 231515Z 16023G28KT 26/19 A2987 RMK A01 T02600189  RH  068%=      5-min Rain = 0
KAOS 231520Z 16023G28KT 26/19 A2987 RMK A01 T02640189  RH  067%=      5-min Rain = 0
KAOS 231525Z 16022G28KT 26/19 A2987 RMK A01 T02620188  RH  068%=      5-min Rain = 0
KAOS 231530Z 16022G28KT 26/19 A2987 RMK A01 T02630187  RH  066%=      5-min Rain = 0
KAOS 231535Z 16024KT 27/19 A2987 RMK A01 T02660188  RH  066%=      5-min Rain = 0
KAOS 231540Z 16024G31KT 27/19 A2987 RMK A01 T02680187  RH  065%=      5-min Rain = 0
KAOS 231545Z 16022G28KT 27/19 A2987 RMK A01 T02680186  RH  064%=      5-min Rain = 0
KAOS 231550Z 16023G29KT 27/19 A2987 RMK A01 T02680187  RH  064%=      5-min Rain = 0
KAOS 231555Z 16021G28KT 27/19 A2987 RMK A01 T02730186  RH  063%=      5-min Rain = 0
KAOS 231600Z 16022G27KT 28/19 A2987 RMK A01 T02750185  RH  061%=      5-min Rain = 0
KAOS 231605Z 16022G27KT 27/18 A2987 RMK A01 T02740184  RH  061%=      5-min Rain = 0
KAOS 231610Z 16023G28KT 28/18 A2987 RMK A01 T02770182  RH  059%=      5-min Rain = 0
KAOS 231615Z 16022G29KT 28/18 A2987 RMK A01 T02760183  RH  060%=      5-min Rain = 0
KAOS 231620Z 17024G30KT 28/18 A2987 RMK A01 T02770181  RH  059%=      5-min Rain = 0
KAOS 231625Z 17022G28KT 28/18 A2987 RMK A01 T02820182  RH  058%=      5-min Rain = 0
KAOS 231630Z 16024G30KT 28/18 A2987 RMK A01 T02810180  RH  057%=      5-min Rain = 0
KAOS 231635Z 17024G30KT 28/18 A2987 RMK A01 T02820179  RH  057%=      5-min Rain = 0
KAOS 231640Z 17022G27KT 29/18 A2987 RMK A01 T02860182  RH  056%=      5-min Rain = 0
KAOS 231645Z 17023KT 29/18 A2987 RMK A01 T02860178  RH  055%=      5-min Rain = 0
KAOS 231650Z 16023G28KT 29/18 A2987 RMK A01 T02870180  RH  055%=      5-min Rain = 0
KAOS 231655Z 16023G29KT 28/18 A2987 RMK A01 T02840177  RH  055%=      5-min Rain = 0
KAOS 231700Z 16022KT 29/18 A2987 RMK A01 T02870179  RH  055%=      5-min Rain = 0
KAOS 231705Z 16023G29KT 29/18 A2987 RMK A01 T02900178  RH  053%=      5-min Rain = 0
KAOS 231710Z 17024G31KT 29/18 A2987 RMK A01 T02920178  RH  053%=      5-min Rain = 0
KAOS 231715Z 17023G30KT 29/17 A2987 RMK A01 T02920174  RH  052%=      5-min Rain = 0
KAOS 231720Z 16024G31KT 30/18 A2987 RMK A01 T02960176  RH  051%=      5-min Rain = 0
KAOS 231725Z 16022G32KT 30/18 A2987 RMK A01 T02990176  RH  050%=      5-min Rain = 0
KAOS 231730Z 17025G31KT 30/18 A2987 RMK A01 T02960177  RH  051%=      5-min Rain = 0
KAOS 231735Z 17022G31KT 30/18 A2986 RMK A01 T02980175  RH  050%=      5-min Rain = 0
KAOS 231740Z 17023G29KT 30/18 A2986 RMK A01 T03000177  RH  050%=      5-min Rain = 0
KAOS 231745Z 16024G29KT 30/18 A2986 RMK A01 T02980176  RH  051%=      5-min Rain = 0
KAOS 231750Z 16023G29KT 30/17 A2986 RMK A01 T03020174  RH  049%=      5-min Rain = 0
KAOS 231755Z 16022G28KT 30/18 A2986 RMK A01 T03010176  RH  050%=      5-min Rain = 0
KAOS 231800Z 17022G27KT 31/17 A2986 RMK A01 T03050170  RH  047%=      5-min Rain = 0
KAOS 231805Z 16023G29KT 30/17 A2986 RMK A01 T03030174  RH  048%=      5-min Rain = 0
KAOS 231810Z 17025G31KT 31/17 A2985 RMK A01 T03070174  RH  047%=      5-min Rain = 0
KAOS 231815Z 17021G28KT 31/17 A2985 RMK A01 T03080170  RH  046%=      5-min Rain = 0
KAOS 231820Z 17022G30KT 31/17 A2985 RMK A01 T03080168  RH  045%=      5-min Rain = 0
KAOS 231825Z 17023G29KT 31/17 A2985 RMK A01 T03090169  RH  045%=      5-min Rain = 0
KAOS 231830Z 16023G29KT 31/17 A2985 RMK A01 T03080169  RH  045%=      5-min Rain = 0
KAOS 231835Z 16021G27KT 31/17 A2985 RMK A01 T03080165  RH  044%=      5-min Rain = 0
KAOS 231840Z 16021G26KT 31/16 A2985 RMK A01 T03110162  RH  043%=      5-min Rain = 0
KAOS 231845Z 17022G30KT 31/17 A2985 RMK A01 T03120167  RH  044%=      5-min Rain = 0
KAOS 231850Z 17024G31KT 31/17 A2984 RMK A01 T03120165  RH  043%=      5-min Rain = 0
KAOS 231855Z 16020G26KT 32/17 A2984 RMK A01 T03160167  RH  043%=      5-min Rain = 0
KAOS 231900Z 16021G32KT 32/16 A2984 RMK A01 T03150163  RH  042%=      5-min Rain = 0
KAOS 231905Z 17023G30KT 32/16 A2984 RMK A01 T03150163  RH  042%=      5-min Rain = 0
KAOS 231910Z 17022G28KT 32/17 A2984 RMK A01 T03180166  RH  042%=      5-min Rain = 0
KAOS 231915Z 17024G33KT 32/17 A2984 RMK A01 T03160166  RH  043%=      5-min Rain = 0
KAOS 231920Z 18024G30KT 32/16 A2984 RMK A01 T03180161  RH  041%=      5-min Rain = 0
KAOS 231925Z 16021G29KT 32/17 A2983 RMK A01 T03220165  RH  041%=      5-min Rain = 0
KAOS 231930Z 16022G28KT 32/16 A2983 RMK A01 T03200162  RH  041%=      5-min Rain = 0
KAOS 231935Z 16025G33KT 32/16 A2983 RMK A01 T03160163  RH  042%=      5-min Rain = 0
KAOS 231940Z 16024G31KT 32/16 A2983 RMK A01 T03200162  RH  040%=      5-min Rain = 0
KAOS 231945Z 16021G29KT 32/16 A2983 RMK A01 T03180163  RH  041%=      5-min Rain = 0
KAOS 231950Z 16022G33KT 32/16 A2983 RMK A01 T03180162  RH  041%=      5-min Rain = 0
KAOS 231955Z 15023G33KT 32/16 A2983 RMK A01 T03170164  RH  042%=      5-min Rain = 0
KAOS 232000Z 16023G30KT 32/16 A2983 RMK A01 T03180164  RH  042%=      5-min Rain = 0
KAOS 232005Z 16022G28KT 32/16 A2983 RMK A01 T03170161  RH  041%=      5-min Rain = 0
KAOS 232010Z 16022G31KT 31/16 A2983 RMK A01 T03130161  RH  042%=      5-min Rain = 0
KAOS 232015Z 17022G31KT 32/16 A2983 RMK A01 T03210160  RH  040%=      5-min Rain = 0
KAOS 232020Z 16022G32KT 32/16 A2983 RMK A01 T03160160  RH  041%=      5-min Rain = 0
KAOS 232025Z 15020G26KT 32/16 A2983 RMK A01 T03160161  RH  041%=      5-min Rain = 0
KAOS 232030Z 16024G33KT 32/16 A2982 RMK A01 T03240162  RH  040%=      5-min Rain = 0
KAOS 232035Z 15026G32KT 32/16 A2982 RMK A01 T03200160  RH  040%=      5-min Rain = 0
KAOS 232040Z 16024G30KT 32/16 A2982 RMK A01 T03180158  RH  040%=      5-min Rain = 0
KAOS 232045Z 16025G31KT 31/16 A2982 RMK A01 T03140157  RH  041%=      5-min Rain = 0
KAOS 232050Z 16024G32KT 32/16 A2982 RMK A01 T03190156  RH  039%=      5-min Rain = 0
KAOS 232055Z 16024G31KT 32/16 A2982 RMK A01 T03220157  RH  039%=      5-min Rain = 0
KAOS 232100Z 15024G30KT 32/16 A2982 RMK A01 T03180157  RH  040%=      5-min Rain = 0
KAOS 232105Z 16022G30KT 32/16 A2982 RMK A01 T03220158  RH  039%=      5-min Rain = 0
KAOS 232110Z 15026G32KT 32/16 A2981 RMK A01 T03170156  RH  040%=      5-min Rain = 0
KAOS 232115Z 16024G31KT 32/16 A2982 RMK A01 T03190155  RH  039%=      5-min Rain = 0
KAOS 232120Z 16022G27KT 32/15 A2981 RMK A01 T03190154  RH  039%=      5-min Rain = 0
KAOS 232125Z 16022KT 32/15 A2981 RMK A01 T03170154  RH  039%=      5-min Rain = 0
KAOS 232130Z 16022G29KT 32/15 A2981 RMK A01 T03150153  RH  039%=      5-min Rain = 0
KAOS 232135Z 16022G29KT 31/15 A2981 RMK A01 T03110151  RH  040%=      5-min Rain = 0
KAOS 232140Z 15025G31KT 31/15 A2981 RMK A01 T03070150  RH  040%=      5-min Rain = 0
KAOS 232145Z 16024G31KT 30/15 A2981 RMK A01 T03030150  RH  041%=      5-min Rain = 0
KAOS 232150Z 16023G29KT 30/15 A2981 RMK A01 T02990149  RH  042%=      5-min Rain = 0
KAOS 232155Z 15023G29KT 30/15 A2981 RMK A01 T02960151  RH  043%=      5-min Rain = 0
KAOS 232200Z 16022G29KT 29/15 A2981 RMK A01 T02940152  RH  044%=      5-min Rain = 0
KAOS 232205Z 15022G29KT 29/15 A2981 RMK A01 T02920150  RH  044%=      5-min Rain = 0
KAOS 232210Z 16020G26KT 29/15 A2981 RMK A01 T02910150  RH  044%=      5-min Rain = 0
KAOS 232215Z 15023KT 29/15 A2981 RMK A01 T02890151  RH  045%=      5-min Rain = 0
KAOS 232220Z 16020G25KT 29/15 A2981 RMK A01 T02870152  RH  046%=      5-min Rain = 0
KAOS 232225Z 16021G28KT 29/15 A2982 RMK A01 T02870151  RH  046%=      5-min Rain = 0
KAOS 232230Z 16021G27KT 29/15 A2982 RMK A01 T02860150  RH  046%=      5-min Rain = 0
KAOS 232235Z 16019G25KT 28/15 A2981 RMK A01 T02840149  RH  046%=      5-min Rain = 0
KAOS 232240Z 16021G27KT 28/15 A2981 RMK A01 T02840153  RH  047%=      5-min Rain = 0
KAOS 232245Z 16019KT 28/16 A2982 RMK A01 T02820159  RH  049%=      5-min Rain = 0
KAOS 232250Z 16020G26KT 28/16 A2982 RMK A01 T02820161  RH  050%=      5-min Rain = 0
KAOS 232255Z 15022G31KT 28/16 A2982 RMK A01 T02810161  RH  051%=      5-min Rain = 0
KAOS 232300Z 15023G29KT 28/16 A2982 RMK A01 T02800164  RH  052%=      5-min Rain = 0
KAOS 232305Z 16022G28KT 28/16 A2981 RMK A01 T02780163  RH  052%=      5-min Rain = 0
KAOS 232310Z 16021G27KT 28/17 A2982 RMK A01 T02760165  RH  053%=      5-min Rain = 0
KAOS 232315Z 15019G24KT 27/17 A2981 RMK A01 T02720170  RH  057%=      5-min Rain = 0
KAOS 232320Z 16017KT 27/17 A2982 RMK A01 T02680173  RH  059%=      5-min Rain = 0
KAOS 232325Z 15021G29KT 26/18 A2982 RMK A01 T02630177  RH  062%=      5-min Rain = 0
KAOS 232330Z 15022KT 25/18 A2981 RMK A01 T02470180  RH  070%=      5-min Rain = 0
KAOS 232335Z 15020G30KT 24/18 A2981 RMK A01 T02390181  RH  074%=      5-min Rain = 0
KAOS 232340Z 16019G25KT 23/18 A2982 RMK A01 T02340181  RH  076%=      5-min Rain = 0
KAOS 232345Z 14022G28KT 23/18 A2981 RMK A01 T02300183  RH  079%=      5-min Rain = 0
KAOS 232350Z 14021G26KT 23/18 A2981 RMK A01 T02270180  RH  079%=      5-min Rain = 0
KAOS 232355Z 14024G30KT 23/17 A298 RMK A01 T02280173  RH  075%=      5-min Rain = 0
KAOS 240000Z 13023G28KT 23/18 A2979 RMK A01 T02260181  RH  080%=      5-min Rain = 0
KAOS 240005Z 13024G29KT 23/18 A2979 RMK A01 T02270178  RH  078%=      5-min Rain = 0
KAOS 240010Z 13020G26KT 23/17 A2979 RMK A01 T02280174  RH  075%=      5-min Rain = 0
KAOS 240015Z 13020G28KT 23/18 A298 RMK A01 T02270179  RH  078%=      5-min Rain = 0
KAOS 240020Z 13024G31KT 23/18 A2981 RMK A01 T02280182  RH  080%=      5-min Rain = 0
KAOS 240025Z 13021G30KT 23/18 A2982 RMK A01 T02300178  RH  077%=      5-min Rain = 0
KAOS 240030Z 13020KT 23/18 A2982 RMK A01 T02290175  RH  075%=      5-min Rain = 0
KAOS 240035Z 13016G22KT 23/18 A2982 RMK A01 T02290179  RH  078%=      5-min Rain = 0
KAOS 240040Z 14014G20KT 23/18 A2982 RMK A01 T02280182  RH  079%=      5-min Rain = 0
KAOS 240045Z 13017G24KT 23/18 A2982 RMK A01 T02280183  RH  080%=      5-min Rain = 0.01
KAOS 240050Z 13019G31KT 23/19 A2981 RMK A01 T02300185  RH  080%=      5-min Rain = 0
KAOS 240055Z 13022G33KT 23/19 A2979 RMK A01 T02280188  RH  083%=      5-min Rain = 0
KAOS 240100Z 12025G37KT 23/19 A2979 RMK A01 T02290189  RH  082%=      5-min Rain = 0
KAOS 240105Z 13025G32KT 23/19 A2982 RMK A01 T02270188  RH  083%=      5-min Rain = 0
KAOS 240110Z 13021G26KT 22/17 A2982 RMK A01 T02190174  RH  080%=      5-min Rain = 0
KAOS 240115Z 14015G25KT 21/17 A2982 RMK A01 T02140169  RH  079%=      5-min Rain = 0
KAOS 240120Z 16022G31KT 21/16 A2985 RMK A01 T02070155  RH  076%=      5-min Rain = 0
KAOS 240125Z 13019G25KT 19/15 A2983 RMK A01 T01910151  RH  081%=      5-min Rain = 0
KAOS 240130Z 14023G29KT 19/15 A2983 RMK A01 T01870146  RH  081%=      5-min Rain = 0.01
KAOS 240135Z 15019G26KT 18/14 A2985 RMK A01 T01810142  RH  081%=      5-min Rain = 0.07
KAOS 240140Z 17018KT 18/14 A299 RMK A01 T01770142  RH  084%=      5-min Rain = 0.08
KAOS 240145Z 18015G20KT 18/14 A2991 RMK A01 T01770138  RH  081%=      5-min Rain = 0.09
KAOS 240150Z 16009G14KT 18/14 A299 RMK A01 T01760138  RH  082%=      5-min Rain = 0.04
KAOS 240155Z 14004KT 18/13 A2989 RMK A01 T01790134  RH  078%=      5-min Rain = 0.03
KAOS 240200Z 28006G17KT 19/13 A299 RMK A01 T01850132  RH  074%=      5-min Rain = 0.05
KAOS 240205Z 24014G19KT 19/11 A2991 RMK A01 T01930107  RH  060%=      5-min Rain = 0.03
KAOS 240210Z 23007G16KT 19/10 A2992 RMK A01 T01880099  RH  058%=      5-min Rain = 0.04
KAOS 240215Z 06009G14KT 18/12 A299 RMK A01 T01770121  RH  073%=      5-min Rain = 0.05
KAOS 240220Z 03007KT 17/12 A2989 RMK A01 T01730117  RH  073%=      5-min Rain = 0.06
KAOS 240225Z 04008KT 17/12 A2991 RMK A01 T01660118  RH  076%=      5-min Rain = 0.15
KAOS 240230Z 18013KT 15/13 A2995 RMK A01 T01530125  RH  087%=      5-min Rain = 0.07
KAOS 240235Z 18006G13KT 15/12 A2994 RMK A01 T01490120  RH  086%=      5-min Rain = 0.09
KAOS 240240Z 16007KT 14/12 A2994 RMK A01 T01420118  RH  089%=      5-min Rain = 0.05
KAOS 240245Z 11005KT 15/12 A2992 RMK A01 T01460122  RH  089%=      5-min Rain = 0
KAOS 240250Z 15004KT 15/12 A2991 RMK A01 T01470119  RH  087%=      5-min Rain = 0
KAOS 240255Z 15002G8KT 15/12 A2993 RMK A01 T01490117  RH  085%=      5-min Rain = 0
KAOS 240300Z 12009KT 16/12 A2992 RMK A01 T01630116  RH  076%=      5-min Rain = 0
KAOS 240305Z 12006G11KT 18/12 A2992 RMK A01 T01750116  RH  071%=      5-min Rain = 0
KAOS 240310Z 21004KT 17/12 A2994 RMK A01 T01690118  RH  075%=      5-min Rain = 0
KAOS 240315Z 22004G11KT 18/11 A2995 RMK A01 T01810110  RH  066%=      5-min Rain = 0
KAOS 240320Z 25010KT 18/11 A2995 RMK A01 T01750109  RH  067%=      5-min Rain = 0
KAOS 240325Z 26008KT 20/10 A2994 RMK A01 T02010100  RH  054%=      5-min Rain = 0
KAOS 240330Z 26007KT 20/10 A2994 RMK A01 T01970103  RH  056%=      5-min Rain = 0
KAOS 240335Z 24004G10KT 20/11 A2994 RMK A01 T01980110  RH  059%=      5-min Rain = 0
KAOS 240340Z 25012KT 19/11 A2995 RMK A01 T01850113  RH  065%=      5-min Rain = 0
KAOS 240345Z 27013G19KT 18/12 A2996 RMK A01 T01790118  RH  070%=      5-min Rain = 0
KAOS 240350Z 26014G19KT 18/11 A2994 RMK A01 T01830111  RH  065%=      5-min Rain = 0
KAOS 240355Z 25016G24KT 18/11 A2996 RMK A01 T01750108  RH  067%=      5-min Rain = 0.01
KAOS 240400Z 27014G26KT 16/11 A2997 RMK A01 T01630109  RH  073%=      5-min Rain = 0.05
KAOS 240405Z 29025KT 15/11 A2996 RMK A01 T01480107  RH  079%=      5-min Rain = 0.06
KAOS 240410Z 29021KT 15/11 A2998 RMK A01 T01490107  RH  079%=      5-min Rain = 0.04
KAOS 240415Z 30016G22KT 15/11 A2997 RMK A01 T01450113  RH  084%=      5-min Rain = 0.05
KAOS 240420Z 34009KT 14/12 A2997 RMK A01 T01440115  RH  086%=      5-min Rain = 0.05
KAOS 240425Z 31005KT 14/12 A2999 RMK A01 T01430117  RH  087%=      5-min Rain = 0.06
KAOS 240430Z 30008KT 14/12 A2999 RMK A01 T01420120  RH  090%=      5-min Rain = 0.07
KAOS 240435Z 28012KT 15/13 A2997 RMK A01 T01470128  RH  092%=      5-min Rain = 0.06
KAOS 240440Z 27013G19KT 15/13 A2999 RMK A01 T01500128  RH  090%=      5-min Rain = 0.03
KAOS 240445Z 26017G22KT 15/13 A2999 RMK A01 T01510127  RH  089%=      5-min Rain = 0.03
KAOS 240450Z 29017KT 15/13 A2997 RMK A01 T01470129  RH  092%=      5-min Rain = 0.07
KAOS 240455Z 23018KT 15/13 A3001 RMK A01 T01460130  RH  094%=      5-min Rain = 0.08

Page generated in 0.0199 seconds.